createdAt,value
2017-07-08T00:01:50.895Z,99.90
2017-07-08T00:04:18.491Z,99.90
2017-07-08T00:06:46.026Z,99.90
2017-07-08T00:09:13.770Z,99.90
2017-07-08T00:11:41.341Z,99.90
2017-07-08T00:14:08.992Z,99.90
2017-07-08T00:16:36.659Z,99.90
2017-07-08T00:19:04.190Z,99.90
2017-07-08T00:21:31.793Z,99.90
2017-07-08T00:23:59.302Z,99.90
2017-07-08T00:26:27.622Z,99.90
2017-07-08T00:28:55.277Z,99.90
2017-07-08T00:31:22.833Z,99.90
2017-07-08T00:33:50.471Z,99.90
2017-07-08T00:36:18.081Z,99.90
2017-07-08T00:38:45.730Z,99.90
2017-07-08T00:41:13.385Z,99.90
2017-07-08T00:43:40.913Z,99.90
2017-07-08T00:46:08.514Z,99.90
2017-07-08T00:48:36.037Z,99.90
2017-07-08T00:51:03.570Z,99.90
2017-07-08T00:53:31.888Z,99.90
2017-07-08T00:55:59.442Z,99.90
2017-07-08T00:58:26.979Z,99.90
2017-07-08T01:00:55.393Z,99.90
2017-07-08T01:03:23.055Z,99.90
2017-07-08T01:05:50.586Z,99.90
2017-07-08T01:08:18.134Z,99.90
2017-07-08T01:10:46.555Z,99.90
2017-07-08T01:13:14.085Z,99.90
2017-07-08T01:15:41.678Z,99.90
2017-07-08T01:18:09.214Z,99.90
2017-07-08T01:20:36.742Z,99.90
2017-07-08T01:23:05.061Z,99.90
2017-07-08T01:25:32.638Z,99.90
2017-07-08T01:28:00.193Z,99.90
2017-07-08T01:30:27.760Z,99.90
2017-07-08T01:32:55.315Z,99.90
2017-07-08T01:35:22.843Z,99.90
2017-07-08T01:37:50.395Z,99.90
2017-07-08T01:40:18.694Z,99.90
2017-07-08T01:42:46.227Z,99.90
2017-07-08T01:45:14.647Z,99.90
2017-07-08T01:47:42.178Z,99.90
2017-07-08T01:50:09.774Z,99.90
2017-07-08T01:52:37.425Z,99.90
2017-07-08T01:55:05.015Z,99.90
2017-07-08T01:57:32.544Z,99.90
2017-07-08T02:00:00.213Z,99.90
2017-07-08T02:02:27.771Z,99.90
2017-07-08T02:04:55.334Z,99.90
2017-07-08T02:07:22.911Z,99.90
2017-07-08T02:09:50.548Z,99.90
2017-07-08T02:12:18.117Z,99.90
2017-07-08T02:14:45.666Z,99.90
2017-07-08T02:17:13.202Z,99.90
2017-07-08T02:19:40.802Z,99.90
2017-07-08T02:22:08.354Z,99.90
2017-07-08T02:24:35.882Z,99.90
2017-07-08T02:27:03.473Z,99.90
2017-07-08T02:29:31.023Z,99.90
2017-07-08T02:31:58.566Z,99.90
2017-07-08T02:34:26.157Z,99.90
2017-07-08T02:36:53.705Z,99.90
2017-07-08T02:39:21.286Z,99.90
2017-07-08T02:41:48.814Z,99.90
2017-07-08T02:44:16.369Z,99.90
2017-07-08T02:46:43.897Z,99.90
2017-07-08T13:56:59.220Z,99.90
2017-07-08T13:59:26.747Z,68.30
2017-07-08T14:01:54.351Z,53.20
2017-07-08T14:04:21.870Z,51.10
2017-07-08T14:06:49.556Z,48.10
2017-07-08T14:09:17.102Z,45.80
2017-07-08T14:11:44.679Z,48.30
2017-07-08T14:14:12.248Z,50.30
2017-07-08T14:16:39.792Z,51.20
2017-07-08T14:19:07.324Z,52.60
2017-07-08T14:21:34.919Z,54.60
2017-07-08T14:24:02.676Z,57.60
2017-07-08T14:26:30.259Z,59.40
2017-07-08T14:28:57.806Z,59.50
2017-07-08T14:31:25.390Z,63.50
2017-07-08T14:33:53.026Z,60.40
2017-07-08T14:36:20.554Z,55.20
2017-07-08T14:38:48.102Z,52.50
2017-07-08T14:41:16.423Z,52.60
2017-07-08T14:43:43.971Z,52.60
2017-07-08T14:46:11.538Z,55.20
2017-07-08T14:48:39.088Z,58.40
2017-07-08T14:51:06.614Z,61.90
2017-07-08T14:53:35.027Z,63.70
2017-07-08T14:56:02.596Z,63.50
2017-07-08T14:58:30.246Z,60.00
2017-07-08T15:00:57.808Z,58.40
2017-07-08T15:03:25.346Z,49.10
2017-07-08T15:05:52.875Z,46.90
2017-07-08T15:08:21.192Z,48.80
2017-07-08T15:10:48.766Z,48.70
2017-07-08T15:13:16.318Z,51.90
2017-07-08T15:15:43.862Z,53.20
2017-07-08T15:18:11.441Z,56.50
2017-07-08T15:20:38.970Z,56.40
2017-07-08T15:23:06.657Z,55.60
2017-07-08T15:25:34.186Z,54.40
2017-07-08T15:28:01.777Z,56.20
2017-07-08T15:30:29.345Z,54.60
2017-07-08T15:32:56.894Z,50.70
2017-07-08T15:35:24.479Z,47.80
2017-07-08T15:37:52.331Z,45.30
2017-07-08T15:40:19.883Z,41.60
2017-07-08T15:42:47.439Z,41.70
2017-07-08T15:45:14.986Z,44.20
2017-07-08T15:47:42.517Z,46.80
2017-07-08T15:50:10.843Z,53.80
2017-07-08T15:52:38.396Z,53.70
2017-07-08T15:55:05.922Z,56.60
2017-07-08T15:57:33.513Z,59.80
2017-07-08T16:00:01.122Z,61.00
2017-07-08T16:02:29.464Z,66.40
2017-07-08T16:04:56.999Z,66.40
2017-07-08T16:07:24.576Z,68.60
2017-07-08T16:09:52.109Z,66.30
2017-07-08T16:12:19.625Z,67.90
2017-07-08T16:14:47.245Z,68.50
2017-07-08T16:17:14.783Z,70.80
2017-07-08T16:19:42.346Z,69.90
2017-07-08T16:22:09.902Z,70.90
2017-07-08T16:24:37.451Z,73.20
2017-07-08T16:27:05.747Z,75.30
2017-07-08T16:29:33.280Z,75.30
2017-07-08T16:32:01.570Z,77.60
2017-07-08T16:34:29.159Z,77.50
2017-07-08T16:36:56.714Z,78.10
2017-07-08T16:39:24.270Z,78.80
2017-07-08T16:41:51.795Z,80.20
2017-07-08T16:44:20.220Z,81.40
2017-07-08T16:46:47.747Z,81.40
2017-07-08T16:49:15.334Z,81.70
2017-07-08T16:51:42.898Z,80.70
2017-07-08T16:54:10.484Z,78.80
2017-07-08T16:56:38.002Z,76.20
2017-07-08T16:59:05.546Z,75.60
2017-07-08T17:01:33.075Z,74.10
2017-07-08T17:04:00.597Z,72.80
2017-07-08T17:06:28.145Z,73.10
2017-07-08T17:08:55.668Z,73.00
2017-07-08T17:11:23.983Z,72.30
2017-07-08T17:13:51.532Z,72.20
2017-07-08T17:16:19.060Z,71.80
2017-07-08T17:18:46.665Z,73.40
2017-07-08T17:21:14.265Z,73.60
2017-07-08T17:23:41.791Z,74.80
2017-07-08T17:26:11.383Z,74.70
2017-07-08T17:28:38.959Z,74.40
2017-07-08T17:31:06.508Z,74.80
2017-07-08T17:33:34.057Z,73.50
2017-07-08T17:36:01.613Z,73.30
2017-07-08T17:38:29.138Z,73.20
2017-07-08T17:40:56.674Z,75.60
2017-07-08T17:43:24.233Z,77.10
2017-07-08T17:45:51.769Z,78.30
2017-07-08T17:48:19.317Z,79.40
2017-07-08T17:50:46.857Z,81.20
2017-07-08T17:53:14.404Z,82.80
2017-07-08T17:55:42.718Z,83.90
2017-07-08T17:58:10.281Z,83.80
2017-07-08T18:00:37.809Z,86.80
2017-07-08T18:03:05.498Z,86.50
2017-07-08T18:05:33.034Z,86.10
2017-07-08T18:08:01.320Z,86.80
2017-07-08T18:10:28.907Z,86.70
2017-07-08T18:12:56.603Z,86.20
2017-07-08T18:15:24.127Z,87.60
2017-07-08T18:17:51.645Z,87.40
2017-07-08T18:20:19.337Z,88.40
2017-07-08T18:22:46.860Z,88.90
2017-07-08T18:25:14.456Z,88.60
2017-07-08T18:27:42.005Z,89.50
2017-07-08T18:30:09.534Z,89.80
2017-07-08T18:32:37.147Z,90.00
2017-07-08T18:35:04.798Z,90.70
2017-07-08T18:37:32.373Z,91.10
2017-07-08T18:39:59.919Z,91.40
2017-07-08T18:42:28.060Z,91.70
2017-07-08T18:44:55.589Z,92.10
2017-07-08T18:47:23.121Z,92.90
2017-07-08T18:49:50.665Z,93.20
2017-07-08T18:52:18.230Z,93.40
2017-07-08T18:54:45.781Z,94.70
2017-07-08T18:57:13.366Z,95.10
2017-07-08T18:59:41.003Z,95.70
2017-07-08T19:02:08.549Z,96.30
2017-07-08T19:04:36.151Z,97.40
2017-07-08T19:07:04.463Z,97.80
2017-07-08T19:09:32.756Z,98.20
2017-07-08T19:12:00.346Z,98.10
2017-07-08T19:14:27.894Z,98.60
2017-07-08T19:16:55.426Z,98.70
2017-07-08T19:19:22.974Z,98.70
2017-07-08T19:21:51.298Z,99.70
2017-07-08T19:24:18.823Z,99.70
2017-07-08T19:26:46.366Z,98.90
2017-07-08T19:29:14.694Z,99.30
2017-07-08T19:31:42.218Z,99.30
2017-07-08T19:34:10.361Z,99.50
2017-07-08T19:36:37.926Z,99.80
2017-07-08T19:39:06.226Z,99.90
2017-07-08T19:41:33.772Z,99.90
2017-07-08T19:44:02.085Z,99.90
2017-07-08T19:46:29.620Z,99.90
2017-07-08T19:48:57.167Z,99.90
2017-07-08T19:51:25.457Z,99.90
2017-07-08T19:53:53.143Z,99.90
2017-07-08T19:56:20.687Z,99.90
2017-07-08T19:58:48.222Z,99.90
2017-07-08T20:01:16.646Z,99.90
2017-07-08T20:03:44.185Z,99.90
2017-07-08T20:06:11.763Z,99.90
2017-07-08T20:08:39.326Z,99.90
2017-07-08T20:11:06.980Z,99.90
2017-07-08T20:13:34.513Z,99.90
2017-07-08T20:16:02.046Z,99.90
2017-07-08T20:18:29.671Z,99.90
2017-07-08T20:20:57.203Z,99.90
2017-07-08T20:23:24.790Z,99.90
2017-07-08T20:25:52.347Z,99.90
2017-07-08T20:28:19.911Z,99.90
2017-07-08T20:30:47.462Z,99.90
2017-07-08T20:33:15.013Z,99.90
2017-07-08T20:35:42.546Z,99.90
2017-07-08T20:38:10.136Z,99.90
2017-07-08T20:40:37.688Z,99.90
2017-07-08T20:43:05.251Z,99.90
2017-07-08T20:45:32.790Z,99.90
2017-07-08T20:48:00.338Z,99.90
2017-07-08T20:50:28.647Z,99.90
2017-07-08T20:52:56.188Z,99.90
2017-07-08T20:55:23.761Z,99.90
2017-07-08T20:57:51.300Z,99.90
2017-07-08T21:00:18.845Z,99.90
2017-07-08T21:02:47.164Z,99.90
2017-07-08T21:05:14.703Z,99.90
2017-07-08T21:07:42.287Z,99.90
2017-07-08T21:10:09.836Z,99.90
2017-07-08T21:12:37.372Z,99.90
2017-07-08T21:15:04.910Z,99.90
2017-07-08T21:17:32.478Z,99.90
2017-07-08T21:20:00.776Z,99.90
2017-07-08T21:22:28.315Z,99.90
2017-07-08T21:24:55.874Z,99.90
2017-07-08T21:27:24.176Z,99.90
2017-07-08T21:29:51.716Z,99.90
2017-07-08T21:32:19.274Z,99.90
2017-07-08T21:34:46.810Z,99.90
2017-07-08T21:37:15.112Z,99.90
2017-07-08T21:39:42.670Z,99.90
2017-07-08T21:42:10.205Z,99.90
2017-07-08T21:44:37.839Z,99.90
2017-07-08T21:47:05.401Z,99.90
2017-07-08T21:49:32.942Z,99.90
2017-07-08T21:52:00.503Z,99.90
2017-07-08T21:54:28.055Z,99.90
2017-07-08T21:56:55.591Z,99.90
2017-07-08T21:59:23.826Z,99.90
2017-07-08T22:01:51.383Z,99.90
2017-07-08T22:04:19.048Z,99.90
2017-07-08T22:06:46.772Z,99.90
2017-07-08T22:09:14.323Z,99.90
2017-07-08T22:11:41.861Z,99.90
2017-07-08T22:14:09.394Z,99.90
2017-07-08T22:16:36.950Z,99.90
2017-07-08T22:19:04.586Z,99.90
2017-07-08T22:21:32.232Z,99.90
2017-07-08T22:24:01.275Z,99.90
2017-07-08T22:26:28.847Z,99.90
2017-07-08T22:28:57.219Z,99.90
2017-07-08T22:31:25.583Z,99.90
2017-07-08T22:33:53.153Z,99.90
2017-07-08T22:36:21.493Z,99.90
2017-07-08T22:38:49.085Z,99.90
2017-07-08T22:41:16.651Z,99.90
2017-07-08T22:43:44.987Z,99.90
2017-07-08T22:46:12.585Z,99.90
2017-07-08T22:48:40.257Z,99.90
2017-07-08T22:51:08.599Z,99.90
2017-07-08T22:53:36.193Z,99.90
2017-07-08T22:56:04.561Z,99.90
2017-07-08T22:58:32.133Z,99.90
2017-07-08T23:01:00.490Z,99.90
2017-07-08T23:03:28.056Z,99.90
2017-07-08T23:05:55.632Z,99.90
2017-07-08T23:08:24.100Z,99.90
2017-07-08T23:10:52.451Z,99.90
2017-07-08T23:13:20.027Z,99.90
2017-07-08T23:15:47.630Z,99.90
2017-07-08T23:18:15.197Z,99.90
2017-07-08T23:20:42.878Z,99.90
2017-07-08T23:23:10.479Z,99.90
2017-07-08T23:25:38.917Z,99.90
2017-07-08T23:28:06.488Z,99.90
2017-07-08T23:30:34.079Z,99.90
2017-07-08T23:33:01.651Z,99.90
2017-07-08T23:35:30.021Z,99.90
2017-07-08T23:37:57.612Z,99.90
2017-07-08T23:40:25.185Z,99.90
2017-07-08T23:42:52.794Z,99.90
2017-07-08T23:45:20.385Z,99.90
2017-07-08T23:47:47.950Z,99.90
2017-07-08T23:50:15.520Z,99.90
2017-07-08T23:52:43.113Z,99.90
2017-07-08T23:55:10.679Z,99.90
2017-07-08T23:57:38.265Z,99.90
